Mombasa Moi International Airport
HKMO : now visible

Airfield :











YOU CAN JOIN US ON...

 
LOGIN :

Register | Disclaimer

   EN    FR    IT 

 









Legend :    VFR   Marginal VFR   IFR   Intensive IFR   Very Intensive IFR
Visi :
Ceiling :
>= 8 km
>= 3000ft
5 to 8 km
1000 to 3000 ft
1500m to 5 km
500 to 1000 ft
800 to 1500m
200 to 500 ft
< 800m
< 200 ft
Symbols :   Thunderstorms  Fog  Heavy snow  Heavy precipitations  Wind > 20 kt







- Airport Elevation : 200 ft
- IATA code : MBA


HKMO - Mombasa Moi International

CURRENT METAR :
  • 162100Z 22003KT 9999 FEW022 22/20 Q1018 NOSIG

EXPIRED METARs :
  • 162000Z 22003KT 9999 FEW023 23/19 Q1018 NOSIG

TAF TAF HKMO
Valid from the 16 at 18:00 until the 18 at 00:00 UTC


161700Z 1618/1724 19005KT 9999 FEW022
BECMG 1700/1703 FEW020
BECMG 1706/1709 18010KT FEW024 BKN080
BECMG 1712/1715 FEW025
BECMG 1718/1724 20010KT FEW022
HKNA FIR / Africa



MET'MAP, your aeronautical weather chart ! - Copyright ORBIFLY December 2007 - Disclaimer

ORBIFLY MET'MAP TEAM :

Programming & Development : Alexandra Zaïnal
Concept & Development : Baudouin d'Aumeries
Co-Development & Prog : Marc-Olivier Méhu
Technical & hardware support : Manuel Goepfert

Contact : metmap@orbifly.com




SOURCES & CREDITS :

   NOAA       Earth
Advisory